createdAt,value
2022-08-22T00:00:42.462Z,15.4
2022-08-22T00:01:56.778Z,16.4
2022-08-22T00:03:11.108Z,15.4
2022-08-22T00:04:25.397Z,15.4
2022-08-22T00:05:39.804Z,16.1
2022-08-22T00:06:54.114Z,15.7
2022-08-22T00:08:08.427Z,15.7
2022-08-22T00:09:22.753Z,15.7
2022-08-22T00:10:37.036Z,15.7
2022-08-22T00:11:51.450Z,15.7
2022-08-22T00:13:05.758Z,15.7
2022-08-22T00:14:20.073Z,15.7
2022-08-22T00:15:34.399Z,16.1
2022-08-22T00:16:48.689Z,15.4
2022-08-22T00:18:03.092Z,15.7
2022-08-22T00:19:17.424Z,16.1
2022-08-22T00:20:31.726Z,15.7
2022-08-22T00:21:46.056Z,15.4
2022-08-22T00:23:00.330Z,15.7
2022-08-22T00:24:14.803Z,15.7
2022-08-22T00:25:29.152Z,15.4
2022-08-22T00:26:42.505Z,15.4
2022-08-22T00:27:56.794Z,15.4
2022-08-22T00:29:11.192Z,15.4
2022-08-22T00:30:25.524Z,15.1
2022-08-22T00:31:39.827Z,15.7
2022-08-22T00:32:54.161Z,15.7
2022-08-22T00:34:08.436Z,15.4
2022-08-22T00:35:22.842Z,15.7
2022-08-22T00:36:37.170Z,15.4
2022-08-22T00:37:51.492Z,15.7
2022-08-22T00:39:05.799Z,15.7
2022-08-22T00:40:20.082Z,15.4
2022-08-22T00:41:34.499Z,15.4
2022-08-22T00:42:48.815Z,15.4
2022-08-22T00:44:03.126Z,15.7
2022-08-22T00:45:17.453Z,15.4
2022-08-22T00:46:31.739Z,15.4
2022-08-22T00:47:46.160Z,15.4
2022-08-22T00:49:00.477Z,15.1
2022-08-22T00:50:14.000Z,15.4
2022-08-22T00:51:29.108Z,15.7
2022-08-22T00:52:43.381Z,15.4
2022-08-22T00:53:57.805Z,15.1
2022-08-22T00:55:12.124Z,15.4
2022-08-22T00:56:26.444Z,15.4
2022-08-22T00:57:40.826Z,15.4
2022-08-22T00:58:54.208Z,15.7
2022-08-22T01:00:08.539Z,15.4
2022-08-22T01:01:21.899Z,15.4
2022-08-22T01:02:36.181Z,15.1
2022-08-22T01:03:50.596Z,15.4
2022-08-22T01:05:04.909Z,15.4
2022-08-22T01:06:19.235Z,15.4
2022-08-22T01:07:33.559Z,15.1
2022-08-22T01:08:47.843Z,15.4
2022-08-22T01:10:02.257Z,15.4
2022-08-22T01:11:16.557Z,15.4
2022-08-22T01:12:30.881Z,15.1
2022-08-22T01:13:45.196Z,15.7
2022-08-22T01:14:59.479Z,15.4
2022-08-22T01:16:13.898Z,15.1
2022-08-22T01:17:28.226Z,15.1
2022-08-22T01:18:42.542Z,15.1
2022-08-22T01:19:56.847Z,15.4
2022-08-22T01:21:11.147Z,15.7
2022-08-22T01:22:25.548Z,15.1
2022-08-22T01:23:39.866Z,15.4
2022-08-22T01:24:54.190Z,15.4
2022-08-22T01:26:08.499Z,15.1
2022-08-22T01:27:22.788Z,15.4
2022-08-22T01:28:37.206Z,15.4
2022-08-22T01:29:51.517Z,14.8
2022-08-22T01:31:05.827Z,15.7
2022-08-22T01:32:20.210Z,15.4
2022-08-22T01:33:33.605Z,15.4
2022-08-22T01:34:47.947Z,14.8
2022-08-22T01:36:01.309Z,15.1
2022-08-22T01:37:15.598Z,14.8
2022-08-22T01:38:29.997Z,15.4
2022-08-22T01:39:44.331Z,15.4
2022-08-22T01:40:58.635Z,15.4
2022-08-22T01:42:12.965Z,15.1
2022-08-22T01:43:27.234Z,15.1
2022-08-22T01:44:41.649Z,15.4
2022-08-22T01:45:55.972Z,15.1
2022-08-22T01:47:10.281Z,15.4
2022-08-22T01:48:24.611Z,15.1
2022-08-22T01:49:38.901Z,15.1
2022-08-22T01:50:53.312Z,14.8
2022-08-22T01:52:07.630Z,15.1
2022-08-22T01:53:21.941Z,15.1
2022-08-22T01:54:36.254Z,15.1
2022-08-22T01:55:50.544Z,14.8
2022-08-22T01:57:04.962Z,15.1
2022-08-22T01:58:19.278Z,15.1
2022-08-22T01:59:33.588Z,14.8
2022-08-22T02:00:47.907Z,14.8
2022-08-22T02:02:02.196Z,14.8
2022-08-22T02:03:16.609Z,14.8
2022-08-22T02:04:30.925Z,15.1
2022-08-22T02:05:45.256Z,14.8
2022-08-22T02:06:59.634Z,15.4
2022-08-22T02:08:12.980Z,15.1
2022-08-22T02:09:27.292Z,15.4
2022-08-22T02:10:41.606Z,14.8
2022-08-22T02:11:55.929Z,15.1
2022-08-22T02:13:10.222Z,15.1
2022-08-22T02:14:24.631Z,15.1
2022-08-22T02:15:38.949Z,15.7
2022-08-22T02:16:53.271Z,15.1
2022-08-22T02:18:07.593Z,14.8
2022-08-22T02:19:21.865Z,15.4
2022-08-22T02:20:36.273Z,14.8
2022-08-22T02:21:50.593Z,15.1
2022-08-22T02:23:04.925Z,15.1
2022-08-22T02:24:19.225Z,14.8
2022-08-22T02:26:47.904Z,15.4
2022-08-22T02:28:02.219Z,15.1
2022-08-22T02:29:16.527Z,14.5
2022-08-22T02:30:30.865Z,15.1
2022-08-22T02:31:45.147Z,14.8
2022-08-22T02:32:59.541Z,14.8
2022-08-22T02:34:13.861Z,14.8
2022-08-22T02:35:28.180Z,14.8
2022-08-22T02:36:42.512Z,14.8
2022-08-22T02:37:56.788Z,15.1
2022-08-22T02:39:11.253Z,15.1
2022-08-22T02:40:25.600Z,14.8
2022-08-22T02:41:38.954Z,14.8
2022-08-22T02:42:53.240Z,14.8
2022-08-22T02:44:07.658Z,14.8
2022-08-22T02:45:21.973Z,14.8
2022-08-22T02:46:36.293Z,14.8
2022-08-22T02:47:50.599Z,14.8
2022-08-22T02:49:04.885Z,15.1
2022-08-22T02:50:19.293Z,14.5
2022-08-22T02:51:33.609Z,14.5
2022-08-22T02:52:47.930Z,14.8
2022-08-22T02:54:02.254Z,15.1
2022-08-22T02:55:16.539Z,14.8
2022-08-22T02:56:30.950Z,14.8
2022-08-22T02:57:45.268Z,14.8
2022-08-22T02:58:59.577Z,15.1
2022-08-22T03:00:13.899Z,14.5
2022-08-22T03:01:28.182Z,15.1
2022-08-22T03:02:42.594Z,14.8
2022-08-22T03:03:56.924Z,14.5
2022-08-22T03:05:11.240Z,14.8
2022-08-22T03:06:25.554Z,14.8
2022-08-22T03:07:39.849Z,14.8
2022-08-22T03:08:54.243Z,14.8
2022-08-22T03:10:08.576Z,14.5
2022-08-22T03:11:22.897Z,14.5
2022-08-22T03:12:37.257Z,15.1
2022-08-22T03:13:50.661Z,14.8
2022-08-22T03:15:05.001Z,14.5
2022-08-22T03:16:18.347Z,14.8
2022-08-22T03:17:32.646Z,14.8
2022-08-22T03:20:01.000Z,15.1
2022-08-22T03:21:15.678Z,14.8
2022-08-22T03:22:29.999Z,14.8
2022-08-22T03:23:44.293Z,14.5
2022-08-22T03:24:58.703Z,14.5
2022-08-22T03:26:12.941Z,14.5
2022-08-22T03:27:27.185Z,14.5
2022-08-22T03:28:41.405Z,14.5
2022-08-22T03:29:55.651Z,14.5
2022-08-22T03:31:09.935Z,14.5
2022-08-22T03:32:24.188Z,14.8
2022-08-22T03:33:38.428Z,14.5
2022-08-22T03:34:52.648Z,15.1
2022-08-22T03:36:06.875Z,14.5
2022-08-22T03:37:21.195Z,14.5
2022-08-22T03:38:35.436Z,14.1
2022-08-22T03:39:49.655Z,14.8
2022-08-22T03:41:03.895Z,14.8
2022-08-22T03:42:18.111Z,14.5
2022-08-22T03:43:32.419Z,14.8
2022-08-22T03:44:46.667Z,14.5
2022-08-22T03:46:00.904Z,14.5
2022-08-22T03:47:15.184Z,14.8
2022-08-22T03:48:28.528Z,14.8
2022-08-22T03:49:42.819Z,14.8
2022-08-22T03:50:56.124Z,14.5
2022-08-22T03:52:10.349Z,14.5
2022-08-22T03:53:24.638Z,14.5
2022-08-22T03:54:38.896Z,14.5
2022-08-22T03:55:53.123Z,14.8
2022-08-22T03:57:07.353Z,14.5
2022-08-22T03:58:21.591Z,14.5
2022-08-22T03:59:35.885Z,14.5
2022-08-22T04:00:50.130Z,15.4
2022-08-22T04:02:04.374Z,14.1
2022-08-22T04:03:18.587Z,13.8
2022-08-22T04:04:32.820Z,14.8
2022-08-22T04:05:47.124Z,14.5
2022-08-22T04:07:01.370Z,14.5
2022-08-22T04:08:15.596Z,14.5
2022-08-22T04:09:29.831Z,14.5
2022-08-22T04:10:44.061Z,14.5
2022-08-22T04:11:58.372Z,14.1
2022-08-22T04:13:12.605Z,14.5
2022-08-22T04:14:26.843Z,14.8
2022-08-22T04:15:41.073Z,14.8
2022-08-22T04:16:55.313Z,14.1
2022-08-22T04:18:09.620Z,14.8
2022-08-22T04:19:23.847Z,15.1
2022-08-22T04:20:38.083Z,14.5
2022-08-22T04:21:52.381Z,14.8
2022-08-22T04:23:05.672Z,14.5
2022-08-22T04:24:19.912Z,14.8
2022-08-22T04:25:34.160Z,14.5
2022-08-22T04:26:48.385Z,14.5
2022-08-22T04:28:02.615Z,14.5
2022-08-22T04:29:16.908Z,14.5
2022-08-22T04:30:31.164Z,13.8
2022-08-22T04:31:45.400Z,14.8
2022-08-22T04:32:59.616Z,14.1
2022-08-22T04:34:13.864Z,14.5
2022-08-22T04:35:28.155Z,14.1
2022-08-22T04:36:42.400Z,14.5
2022-08-22T04:37:56.640Z,14.1
2022-08-22T04:39:10.873Z,14.1
2022-08-22T04:40:25.105Z,14.1
2022-08-22T04:41:39.401Z,13.8
2022-08-22T04:42:53.652Z,14.8
2022-08-22T04:44:07.865Z,14.8
2022-08-22T04:45:22.100Z,14.5
2022-08-22T04:46:36.330Z,14.8
2022-08-22T04:47:50.640Z,14.1
2022-08-22T04:49:04.890Z,14.5
2022-08-22T04:50:19.109Z,14.8
2022-08-22T04:51:33.346Z,14.5
2022-08-22T04:52:47.576Z,13.8
2022-08-22T04:54:01.941Z,14.8
2022-08-22T04:55:16.218Z,14.8
2022-08-22T04:56:29.554Z,13.8
2022-08-22T04:57:42.861Z,14.5
2022-08-22T04:58:57.115Z,14.8
2022-08-22T05:00:11.345Z,14.5
2022-08-22T05:01:25.576Z,14.5
2022-08-22T05:02:39.798Z,14.5
2022-08-22T05:03:54.106Z,13.8
2022-08-22T05:05:08.340Z,14.1
2022-08-22T05:06:22.588Z,14.8
2022-08-22T05:07:36.805Z,13.8
2022-08-22T05:08:51.037Z,14.5
2022-08-22T05:10:05.346Z,14.5
2022-08-22T05:11:19.601Z,14.1
2022-08-22T05:12:33.818Z,15.4
2022-08-22T05:13:48.055Z,14.8
2022-08-22T05:15:02.272Z,14.8
2022-08-22T05:16:16.597Z,14.5
2022-08-22T05:17:30.831Z,14.5
2022-08-22T05:18:45.072Z,14.8
2022-08-22T05:19:59.296Z,14.8
2022-08-22T05:21:13.522Z,14.5
2022-08-22T05:22:27.837Z,14.5
2022-08-22T05:23:42.067Z,14.8
2022-08-22T05:24:56.308Z,14.5
2022-08-22T05:26:10.539Z,14.8
2022-08-22T05:27:24.762Z,14.5
2022-08-22T05:28:39.136Z,14.8
2022-08-22T05:29:53.410Z,15.1
2022-08-22T05:31:06.717Z,14.8
2022-08-22T05:32:20.955Z,14.8
2022-08-22T05:33:35.246Z,14.8
2022-08-22T05:34:49.487Z,15.1
2022-08-22T05:36:03.725Z,14.5
2022-08-22T05:37:17.948Z,15.1
2022-08-22T05:38:32.188Z,14.8
2022-08-22T05:41:00.737Z,15.1
2022-08-22T05:42:14.957Z,14.8
2022-08-22T05:43:29.197Z,15.1
2022-08-22T05:44:43.432Z,14.8
2022-08-22T05:45:57.736Z,14.8
2022-08-22T05:47:11.969Z,15.7
2022-08-22T05:48:26.199Z,14.8
2022-08-22T05:49:40.444Z,15.1
2022-08-22T05:50:54.657Z,15.1
2022-08-22T05:52:08.968Z,15.1
2022-08-22T05:53:23.212Z,15.1
2022-08-22T05:54:37.456Z,15.1
2022-08-22T05:55:51.672Z,15.1
2022-08-22T05:57:05.916Z,15.1
2022-08-22T05:58:20.211Z,14.8
2022-08-22T05:59:34.449Z,15.1
2022-08-22T06:00:48.687Z,15.1
2022-08-22T06:02:02.974Z,14.8
2022-08-22T06:03:16.325Z,15.7
2022-08-22T06:04:30.619Z,15.1
2022-08-22T06:05:43.910Z,15.1
2022-08-22T06:06:58.137Z,14.8
2022-08-22T06:08:12.446Z,15.4
2022-08-22T06:09:26.691Z,15.4
2022-08-22T06:10:40.916Z,15.1
2022-08-22T06:11:55.139Z,15.4
2022-08-22T06:13:09.387Z,15.4
2022-08-22T06:14:23.693Z,15.4
2022-08-22T06:15:37.932Z,15.4
2022-08-22T06:16:52.148Z,15.7
2022-08-22T06:18:06.386Z,15.4
2022-08-22T06:19:20.627Z,15.4
2022-08-22T06:20:34.919Z,15.4
2022-08-22T06:21:49.165Z,15.7
2022-08-22T06:23:03.401Z,15.7
2022-08-22T06:24:17.632Z,15.7
2022-08-22T06:25:31.849Z,15.7
2022-08-22T06:26:46.171Z,15.7
2022-08-22T06:28:00.416Z,16.1
2022-08-22T06:29:14.629Z,16.1
2022-08-22T06:30:28.866Z,15.7
2022-08-22T06:31:43.092Z,16.1
2022-08-22T06:32:57.397Z,16.1
2022-08-22T06:34:11.644Z,15.7
2022-08-22T06:35:25.887Z,16.1
2022-08-22T06:36:40.174Z,15.7
2022-08-22T06:37:53.513Z,15.7
2022-08-22T06:39:07.789Z,15.1
2022-08-22T06:40:21.098Z,15.7
2022-08-22T06:41:35.325Z,16.1
2022-08-22T06:42:49.624Z,16.4
2022-08-22T06:44:03.873Z,16.4
2022-08-22T06:45:18.099Z,16.4
2022-08-22T06:46:32.331Z,16.1
2022-08-22T06:47:46.560Z,16.4
2022-08-22T06:49:00.867Z,16.1
2022-08-22T06:50:15.108Z,16.4
2022-08-22T06:51:29.337Z,16.4
2022-08-22T06:52:43.572Z,16.7
2022-08-22T06:53:57.792Z,16.1
2022-08-22T06:55:12.096Z,16.1
2022-08-22T06:56:26.347Z,16.4
2022-08-22T06:57:40.572Z,16.4
2022-08-22T06:58:54.801Z,16.4
2022-08-22T07:00:09.036Z,16.4
2022-08-22T07:01:23.342Z,16.4
2022-08-22T07:02:37.594Z,16.7
2022-08-22T07:03:51.813Z,16.4
2022-08-22T07:05:06.043Z,17
2022-08-22T07:06:20.276Z,16.7
2022-08-22T07:07:34.586Z,16.7
2022-08-22T07:08:48.826Z,16.4
2022-08-22T07:10:03.053Z,17
2022-08-22T07:11:17.342Z,16.4
2022-08-22T07:12:30.645Z,16.7
2022-08-22T07:13:44.893Z,16.7
2022-08-22T07:14:59.112Z,16.7
2022-08-22T07:16:13.357Z,16.7
2022-08-22T07:31:04.361Z,17
2022-08-22T07:32:18.605Z,17
2022-08-22T07:33:32.836Z,17
2022-08-22T07:34:47.049Z,17
2022-08-22T07:36:01.287Z,17
2022-08-22T07:37:15.602Z,17
2022-08-22T07:38:29.841Z,17
2022-08-22T07:39:44.060Z,16.7
2022-08-22T07:40:58.289Z,16.7
2022-08-22T07:42:12.535Z,17
2022-08-22T07:43:26.901Z,17.7
2022-08-22T07:44:41.172Z,16.7
2022-08-22T07:45:54.473Z,17.4
2022-08-22T07:47:08.711Z,17.4
2022-08-22T07:48:23.019Z,17.7
2022-08-22T07:49:37.261Z,17.7
2022-08-22T07:50:51.488Z,17.7
2022-08-22T07:52:05.722Z,17.4
2022-08-22T07:53:19.945Z,17.4
2022-08-22T07:54:34.245Z,17.4
2022-08-22T07:55:48.491Z,17.7
2022-08-22T07:57:02.732Z,17.4
2022-08-22T07:58:16.959Z,17.4
2022-08-22T07:59:31.200Z,17.7
2022-08-22T08:00:45.504Z,17.4
2022-08-22T08:01:59.730Z,17.7
2022-08-22T08:03:13.977Z,17.7
2022-08-22T08:04:28.198Z,17.7
2022-08-22T08:05:42.436Z,17.4
2022-08-22T08:06:56.740Z,17.4
2022-08-22T08:08:10.000Z,17.4
2022-08-22T08:09:25.208Z,17.7
2022-08-22T08:10:39.441Z,17.7
2022-08-22T08:11:53.661Z,17.7
2022-08-22T08:13:07.974Z,17.7
2022-08-22T08:14:22.229Z,17.7
2022-08-22T08:15:36.443Z,17.7
2022-08-22T08:16:50.742Z,17.7
2022-08-22T08:18:04.063Z,18
2022-08-22T08:19:18.355Z,17.7
2022-08-22T08:20:31.654Z,18.3
2022-08-22T08:21:45.882Z,18.3
2022-08-22T08:23:00.198Z,18
2022-08-22T08:24:14.432Z,18
2022-08-22T08:25:28.662Z,18
2022-08-22T08:26:42.894Z,17.4
2022-08-22T08:27:57.137Z,18.3
2022-08-22T08:29:11.424Z,18.3
2022-08-22T08:30:25.685Z,18
2022-08-22T08:31:39.906Z,18
2022-08-22T08:32:54.147Z,18
2022-08-22T08:34:08.364Z,18.3
2022-08-22T08:35:22.682Z,18
2022-08-22T08:36:36.909Z,18.6
2022-08-22T08:37:51.149Z,18.3
2022-08-22T08:39:05.369Z,18.3
2022-08-22T08:40:19.616Z,18.3
2022-08-22T08:41:33.922Z,18.6
2022-08-22T08:42:48.163Z,18.3
2022-08-22T08:44:02.383Z,18
2022-08-22T08:45:16.610Z,18.6
2022-08-22T08:46:30.839Z,18.6
2022-08-22T08:47:45.161Z,18.3
2022-08-22T08:48:59.392Z,18.3
2022-08-22T08:50:13.637Z,18.6
2022-08-22T08:51:27.000Z,18.3
2022-08-22T08:52:41.257Z,18
2022-08-22T08:53:55.540Z,18.3
2022-08-22T08:55:08.850Z,18.6
2022-08-22T08:56:23.075Z,18.3
2022-08-22T08:57:37.369Z,18.6
2022-08-22T08:58:51.611Z,19
2022-08-22T09:00:05.859Z,18.6
2022-08-22T09:01:20.095Z,18.6
2022-08-22T09:02:34.322Z,18.6
2022-08-22T09:03:48.635Z,19.3
2022-08-22T09:05:02.873Z,18.6
2022-08-22T09:06:17.099Z,18.3
2022-08-22T09:07:31.342Z,19
2022-08-22T09:08:45.566Z,19
2022-08-22T09:09:59.859Z,18.6
2022-08-22T09:11:14.113Z,18.3
2022-08-22T09:12:28.337Z,19
2022-08-22T09:13:42.566Z,18.6
2022-08-22T09:14:56.813Z,18.6
2022-08-22T09:16:11.121Z,19.3
2022-08-22T09:17:25.362Z,18.6
2022-08-22T09:18:39.575Z,19.3
2022-08-22T09:19:53.823Z,19.3
2022-08-22T09:21:08.054Z,18.6
2022-08-22T09:22:22.343Z,18.3
2022-08-22T09:23:36.597Z,19.3
2022-08-22T09:24:50.821Z,19
2022-08-22T09:26:05.124Z,19.6
2022-08-22T09:27:18.427Z,19.3
2022-08-22T09:28:32.653Z,19.3
2022-08-22T09:29:46.898Z,19.6
2022-08-22T09:31:01.120Z,19.3
2022-08-22T09:32:15.356Z,19
2022-08-22T09:33:29.648Z,19.3
2022-08-22T09:34:43.895Z,19.9
2022-08-22T09:35:58.132Z,19.9
2022-08-22T09:37:12.370Z,19.6
2022-08-22T09:38:26.585Z,19.6
2022-08-22T09:39:40.900Z,19.6
2022-08-22T09:40:55.138Z,19.6
2022-08-22T09:42:09.379Z,19.6
2022-08-22T09:43:23.610Z,19.9
2022-08-22T09:44:37.839Z,19.6
2022-08-22T09:45:52.140Z,19.6
2022-08-22T09:47:06.385Z,19.6
2022-08-22T09:48:20.620Z,19.9
2022-08-22T09:49:34.839Z,19.9
2022-08-22T09:50:49.080Z,19.6
2022-08-22T09:52:03.371Z,19.6
2022-08-22T09:53:17.631Z,19.6
2022-08-22T09:54:31.860Z,19.9
2022-08-22T09:55:46.090Z,19.9
2022-08-22T09:57:00.320Z,19.6
2022-08-22T09:58:14.677Z,19.9
2022-08-22T09:59:28.961Z,19.6
2022-08-22T10:00:42.293Z,19.9
2022-08-22T10:01:55.611Z,20.3
2022-08-22T10:03:09.850Z,19.9
2022-08-22T10:04:24.075Z,19.9
2022-08-22T10:05:38.300Z,19.9
2022-08-22T10:06:52.531Z,20.6
2022-08-22T10:08:06.832Z,20.3
2022-08-22T10:09:21.089Z,20.6
2022-08-22T10:10:35.324Z,20.6
2022-08-22T10:11:49.548Z,20.6
2022-08-22T10:13:03.778Z,20.6
2022-08-22T10:14:18.088Z,20.6
2022-08-22T10:15:32.320Z,20.3
2022-08-22T10:16:46.564Z,20.3
2022-08-22T10:18:00.784Z,20.6
2022-08-22T10:19:15.014Z,20.6
2022-08-22T10:20:29.323Z,20.6
2022-08-22T10:21:43.578Z,20.9
2022-08-22T10:22:57.805Z,20.6
2022-08-22T10:24:12.027Z,21.2
2022-08-22T10:25:26.260Z,21.2
2022-08-22T10:26:40.558Z,20.6
2022-08-22T10:27:54.814Z,20.9
2022-08-22T10:29:09.031Z,20.9
2022-08-22T10:30:23.264Z,20.9
2022-08-22T10:31:37.502Z,20.9
2022-08-22T10:32:51.856Z,20.9
2022-08-22T10:34:06.141Z,20.9
2022-08-22T10:35:19.447Z,20.9
2022-08-22T10:36:32.692Z,20.9
2022-08-22T10:37:46.955Z,20.9
2022-08-22T10:39:01.178Z,21.2
2022-08-22T10:40:15.411Z,20.9
2022-08-22T10:41:29.629Z,20.6
2022-08-22T10:42:43.939Z,21.2
2022-08-22T10:43:58.189Z,21.2
2022-08-22T10:45:12.424Z,20.9
2022-08-22T10:46:26.644Z,21.5
2022-08-22T10:47:40.874Z,21.2
2022-08-22T10:48:55.181Z,21.2
2022-08-22T10:50:09.428Z,21.2
2022-08-22T10:51:23.654Z,21.2
2022-08-22T10:52:37.884Z,21.2
2022-08-22T10:53:52.119Z,20.3
2022-08-22T10:55:06.412Z,21.5
2022-08-22T10:56:20.656Z,21.5
2022-08-22T10:57:34.902Z,21.9
2022-08-22T10:58:49.127Z,21.2
2022-08-22T11:00:03.351Z,21.5
2022-08-22T11:01:17.666Z,21.5
2022-08-22T11:02:31.893Z,21.9
2022-08-22T11:03:46.135Z,21.9
2022-08-22T11:05:00.374Z,21.5
2022-08-22T11:06:14.605Z,21.9
2022-08-22T11:07:28.896Z,22.2
2022-08-22T11:08:43.156Z,21.9
2022-08-22T11:09:57.371Z,22.2
2022-08-22T11:11:11.600Z,21.5
2022-08-22T11:12:25.845Z,21.9
2022-08-22T11:13:40.137Z,22.2
2022-08-22T11:14:54.379Z,22.2
2022-08-22T11:16:08.624Z,21.9
2022-08-22T11:17:22.850Z,22.5
2022-08-22T11:18:37.084Z,21.9
2022-08-22T11:19:51.388Z,22.2
2022-08-22T11:21:05.620Z,22.2
2022-08-22T11:22:19.909Z,22.2
2022-08-22T11:23:33.254Z,22.5
2022-08-22T11:24:47.554Z,21.9
2022-08-22T11:26:01.852Z,22.5
2022-08-22T11:27:15.137Z,22.2
2022-08-22T11:28:29.000Z,22.5
2022-08-22T11:29:43.667Z,22.5
2022-08-22T11:30:57.922Z,22.5
2022-08-22T11:32:12.143Z,22.5
2022-08-22T11:33:26.391Z,22.5
2022-08-22T11:34:40.620Z,22.2
2022-08-22T11:35:54.919Z,22.5
2022-08-22T11:37:09.170Z,22.8
2022-08-22T11:38:23.391Z,22.5
2022-08-22T11:39:37.627Z,22.5
2022-08-22T11:40:51.846Z,22.5
2022-08-22T11:42:06.163Z,22.5
2022-08-22T11:43:20.414Z,22.8
2022-08-22T11:44:34.630Z,22.8
2022-08-22T11:45:48.875Z,22.8
2022-08-22T11:47:03.105Z,22.8
2022-08-22T11:48:17.401Z,22.5
2022-08-22T11:49:31.647Z,22.8
2022-08-22T11:50:45.873Z,22.8
2022-08-22T11:52:00.097Z,22.8
2022-08-22T11:53:14.337Z,22.8
2022-08-22T11:54:28.649Z,22.5
2022-08-22T11:55:42.884Z,22.5
2022-08-22T11:56:57.116Z,22.5
2022-08-22T11:58:11.403Z,22.5
2022-08-22T11:59:24.696Z,23.2
2022-08-22T12:00:38.953Z,22.8
2022-08-22T12:01:53.179Z,22.5
2022-08-22T12:03:07.408Z,22.5
2022-08-22T12:04:21.648Z,22.5
2022-08-22T12:05:35.950Z,22.8
2022-08-22T12:06:50.196Z,23.2
2022-08-22T12:08:04.425Z,22.5
2022-08-22T12:09:18.643Z,22.8
2022-08-22T12:10:32.877Z,22.8
2022-08-22T12:11:47.192Z,23.2
2022-08-22T12:13:01.431Z,23.2
2022-08-22T12:15:29.894Z,23.2
2022-08-22T12:16:44.124Z,22.8
2022-08-22T12:17:58.429Z,23.5
2022-08-22T12:19:12.679Z,23.2
2022-08-22T12:20:26.906Z,23.2
2022-08-22T12:30:20.973Z,22.8
2022-08-22T12:32:49.553Z,23.2
2022-08-22T12:34:02.845Z,23.2
2022-08-22T12:35:17.144Z,22.8
2022-08-22T12:36:31.387Z,22.8
2022-08-22T12:37:45.633Z,22.8
2022-08-22T12:38:59.865Z,22.8
2022-08-22T12:40:14.090Z,22.8
2022-08-22T12:41:28.394Z,23.2
2022-08-22T12:42:42.633Z,22.8
2022-08-22T12:43:56.856Z,22.8
2022-08-22T12:45:11.097Z,23.2
2022-08-22T12:46:25.319Z,23.5
2022-08-22T12:47:39.639Z,23.8
2022-08-22T12:48:53.872Z,23.5
2022-08-22T12:50:08.108Z,23.8
2022-08-22T12:51:22.344Z,23.5
2022-08-22T12:52:36.570Z,23.8
2022-08-22T12:53:50.882Z,23.8
2022-08-22T12:55:05.114Z,24.1
2022-08-22T12:56:19.349Z,23.8
2022-08-22T12:57:33.585Z,24.1
2022-08-22T12:58:47.810Z,23.2
2022-08-22T13:00:02.103Z,23.8
2022-08-22T13:01:16.356Z,23.5
2022-08-22T13:02:30.598Z,23.8
2022-08-22T13:03:44.821Z,24.1
2022-08-22T13:04:59.106Z,23.2
2022-08-22T13:06:13.421Z,23.8
2022-08-22T13:07:27.706Z,23.8
2022-08-22T13:08:41.007Z,23.5
2022-08-22T13:09:55.229Z,23.2
2022-08-22T13:11:09.539Z,22.8
2022-08-22T13:12:23.779Z,23.2
2022-08-22T13:13:38.003Z,23.2
2022-08-22T13:14:52.237Z,23.5
2022-08-22T13:16:06.474Z,23.5
2022-08-22T13:17:20.781Z,23.5
2022-08-22T13:18:35.031Z,23.2
2022-08-22T13:19:49.241Z,23.5
2022-08-22T13:21:03.476Z,23.8
2022-08-22T13:22:17.709Z,23.5
2022-08-22T13:23:32.025Z,23.5
2022-08-22T13:24:46.262Z,23.5
2022-08-22T13:26:00.482Z,23.5
2022-08-22T13:27:14.726Z,23.5
2022-08-22T13:28:28.952Z,23.2
2022-08-22T13:29:43.255Z,22.8
2022-08-22T13:30:57.495Z,23.5
2022-08-22T13:32:11.729Z,22.8
2022-08-22T13:33:25.962Z,23.2
2022-08-22T13:34:40.186Z,22.8
2022-08-22T13:35:54.490Z,23.2
2022-08-22T13:37:08.750Z,23.2
2022-08-22T13:38:22.984Z,23.2
2022-08-22T13:39:37.259Z,23.2
2022-08-22T13:40:50.557Z,22.8
2022-08-22T13:42:04.815Z,23.2
2022-08-22T13:43:19.028Z,22.5
2022-08-22T13:44:33.273Z,23.2
2022-08-22T13:45:47.506Z,23.2
2022-08-22T13:47:01.808Z,23.2
2022-08-22T13:48:16.045Z,23.5
2022-08-22T13:49:30.275Z,23.2
2022-08-22T13:50:44.506Z,23.2
2022-08-22T13:51:58.732Z,24.1
2022-08-22T13:53:13.051Z,23.5
2022-08-22T13:54:27.300Z,23.5
2022-08-22T13:55:41.530Z,23.8
2022-08-22T13:56:55.745Z,23.5
2022-08-22T13:58:09.990Z,23.8
2022-08-22T13:59:24.287Z,23.8
2022-08-22T14:00:38.532Z,23.5
2022-08-22T14:01:52.766Z,23.2
2022-08-22T14:03:06.982Z,23.5
2022-08-22T14:04:21.219Z,23.5
2022-08-22T14:05:35.537Z,23.5
2022-08-22T14:06:49.779Z,23.2
2022-08-22T14:08:04.009Z,23.5
2022-08-22T14:09:18.242Z,23.5
2022-08-22T14:10:32.460Z,23.2
2022-08-22T14:11:46.820Z,23.2
2022-08-22T14:13:01.107Z,23.2
2022-08-22T14:15:28.643Z,23.2
2022-08-22T14:16:42.954Z,23.2
2022-08-22T14:17:57.202Z,23.2
2022-08-22T14:19:11.425Z,23.8
2022-08-22T14:20:25.660Z,23.2
2022-08-22T14:21:39.883Z,23.2
2022-08-22T14:22:54.183Z,23.2
2022-08-22T14:24:08.431Z,23.2
2022-08-22T14:25:22.666Z,23.2
2022-08-22T14:26:36.899Z,23.2
2022-08-22T14:27:51.133Z,22.8
2022-08-22T14:29:05.434Z,23.5
2022-08-22T14:30:19.668Z,22.8
2022-08-22T14:31:33.909Z,23.2
2022-08-22T14:32:48.147Z,23.5
2022-08-22T14:34:02.370Z,22.5
2022-08-22T14:35:16.664Z,23.2
2022-08-22T14:36:30.918Z,23.2
2022-08-22T14:37:45.149Z,23.2
2022-08-22T14:38:59.371Z,23.2
2022-08-22T14:40:13.594Z,23.2
2022-08-22T14:41:27.893Z,23.2
2022-08-22T14:42:42.143Z,22.8
2022-08-22T14:43:56.384Z,23.2
2022-08-22T14:45:10.667Z,23.5
2022-08-22T14:46:24.023Z,22.8
2022-08-22T14:47:38.293Z,22.8
2022-08-22T14:48:51.590Z,22.8
2022-08-22T14:50:05.831Z,23.2
2022-08-22T14:51:20.142Z,22.8
2022-08-22T14:52:34.380Z,22.8
2022-08-22T14:53:48.618Z,23.2
2022-08-22T14:55:02.837Z,23.2
2022-08-22T14:56:17.081Z,22.5
2022-08-22T14:57:31.382Z,22.8
2022-08-22T14:58:45.612Z,22.8
2022-08-22T14:59:59.847Z,22.5
2022-08-22T15:01:14.078Z,22.8
2022-08-22T15:02:28.308Z,23.2
2022-08-22T15:03:42.616Z,22.8
2022-08-22T15:04:56.853Z,22.5
2022-08-22T15:06:11.087Z,22.8
2022-08-22T15:07:25.317Z,22.5
2022-08-22T15:08:39.558Z,22.8
2022-08-22T15:09:53.859Z,23.2
2022-08-22T15:11:08.097Z,22.2
2022-08-22T15:12:22.338Z,22.8
2022-08-22T15:13:36.563Z,23.2
2022-08-22T15:14:50.801Z,22.8
2022-08-22T15:16:05.092Z,22.8
2022-08-22T15:17:19.336Z,22.8
2022-08-22T15:18:33.564Z,22.5
2022-08-22T15:19:47.857Z,22.5
2022-08-22T15:21:01.194Z,23.2
2022-08-22T15:22:15.477Z,22.8
2022-08-22T15:23:28.781Z,23.2
2022-08-22T15:24:43.013Z,22.8
2022-08-22T15:25:57.328Z,22.5
2022-08-22T15:27:11.572Z,22.5
2022-08-22T15:28:25.795Z,22.8
2022-08-22T15:29:40.019Z,22.8
2022-08-22T15:30:54.245Z,22.5
2022-08-22T15:32:08.565Z,22.8
2022-08-22T15:33:22.806Z,22.8
2022-08-22T15:34:37.037Z,22.5
2022-08-22T15:35:51.262Z,22.5
2022-08-22T15:37:05.493Z,22.5
2022-08-22T15:38:19.794Z,22.8
2022-08-22T15:39:34.049Z,22.2
2022-08-22T15:40:48.266Z,23.2
2022-08-22T15:42:02.502Z,22.5
2022-08-22T15:43:16.725Z,22.5
2022-08-22T15:44:31.033Z,22.5
2022-08-22T15:45:45.292Z,22.5
2022-08-22T15:46:59.521Z,22.5
2022-08-22T15:48:13.753Z,21.9
2022-08-22T15:49:27.982Z,22.5
2022-08-22T15:50:42.274Z,22.5
2022-08-22T15:51:56.531Z,22.5
2022-08-22T15:53:10.752Z,22.2
2022-08-22T15:54:25.039Z,22.2
2022-08-22T15:55:38.354Z,22.2
2022-08-22T15:56:52.595Z,22.5
2022-08-22T15:58:06.817Z,22.2
2022-08-22T15:59:21.046Z,22.2
2022-08-22T16:00:35.277Z,22.2
2022-08-22T16:01:49.580Z,22.2
2022-08-22T16:03:03.821Z,22.5
2022-08-22T16:04:18.055Z,21.9
2022-08-22T16:05:32.289Z,22.2
2022-08-22T16:06:46.519Z,22.2
2022-08-22T16:08:00.834Z,21.9
2022-08-22T16:09:15.079Z,21.9
2022-08-22T16:10:29.310Z,21.9
2022-08-22T16:11:43.521Z,21.9
2022-08-22T16:12:57.770Z,21.9
2022-08-22T16:14:12.070Z,22.2
2022-08-22T16:15:26.319Z,21.9
2022-08-22T16:16:40.535Z,22.2
2022-08-22T16:17:54.778Z,21.9
2022-08-22T16:19:08.998Z,21.9
2022-08-22T16:20:23.298Z,22.2
2022-08-22T16:21:37.554Z,21.9
2022-08-22T16:22:51.777Z,21.9
2022-08-22T16:24:06.015Z,21.5
2022-08-22T16:25:20.246Z,22.2
2022-08-22T16:26:34.614Z,22.5
2022-08-22T16:27:48.902Z,22.5
2022-08-22T16:29:02.188Z,21.5
2022-08-22T16:30:16.422Z,21.9
2022-08-22T16:31:30.716Z,21.9
2022-08-22T16:32:44.970Z,22.2
2022-08-22T16:33:59.208Z,21.9
2022-08-22T16:35:13.439Z,22.2
2022-08-22T16:36:27.671Z,21.5
2022-08-22T16:37:41.955Z,21.9
2022-08-22T16:38:56.200Z,21.5
2022-08-22T16:40:10.449Z,21.9
2022-08-22T16:41:24.660Z,21.5
2022-08-22T16:42:38.891Z,21.5
2022-08-22T16:43:53.207Z,21.9
2022-08-22T16:45:07.443Z,21.5
2022-08-22T16:46:21.681Z,21.5
2022-08-22T16:47:35.901Z,21.2
2022-08-22T16:48:50.149Z,21.9
2022-08-22T16:50:04.443Z,21.5
2022-08-22T16:51:18.690Z,21.5
2022-08-22T16:52:32.914Z,21.9
2022-08-22T16:53:47.148Z,21.9
2022-08-22T16:55:01.376Z,21.5
2022-08-22T16:56:15.679Z,21.5
2022-08-22T16:57:29.000Z,21.5
2022-08-22T16:58:44.158Z,21.2
2022-08-22T16:59:58.453Z,21.5